createdAt,value
2023-03-28T00:00:32.315Z,98217.19
2023-03-28T00:03:00.092Z,98218.94
2023-03-28T00:05:28.186Z,98218.13
2023-03-28T00:07:56.692Z,98223.28
2023-03-28T00:10:24.846Z,98225.00
2023-03-28T00:12:52.661Z,98232.78
2023-03-28T00:15:21.860Z,98223.31
2023-03-28T00:17:52.502Z,98229.34
2023-03-28T00:20:20.395Z,98233.63
2023-03-28T00:22:48.230Z,98235.38
2023-03-28T00:25:16.101Z,98233.63
2023-03-28T00:27:43.829Z,98241.44
2023-03-28T00:30:12.209Z,98245.78
2023-03-28T00:32:41.451Z,98248.31
2023-03-28T00:35:10.289Z,98255.28
2023-03-28T00:37:38.032Z,98250.09
2023-03-28T00:40:08.005Z,98241.50
2023-03-28T00:42:35.776Z,98260.53
2023-03-28T00:45:03.500Z,98248.44
2023-03-28T00:47:40.846Z,98249.31
2023-03-28T00:50:13.630Z,98243.28
2023-03-28T00:52:43.685Z,98245.88
2023-03-28T00:55:14.832Z,98243.34
2023-03-28T00:57:43.012Z,98247.59
2023-03-28T01:00:13.356Z,98223.66
2023-03-28T01:02:42.486Z,98241.69
2023-03-28T01:05:13.356Z,98249.53
2023-03-28T01:07:45.507Z,98247.81
2023-03-28T01:10:13.620Z,98247.00
2023-03-28T01:12:42.497Z,98252.25
2023-03-28T01:15:11.522Z,98247.94
2023-03-28T01:17:41.511Z,98243.72
2023-03-28T01:20:26.935Z,98253.22
2023-03-28T01:23:09.203Z,98254.91
2023-03-28T01:25:54.691Z,98254.94
2023-03-28T01:28:31.768Z,98262.66
2023-03-28T01:31:35.554Z,98264.44
2023-03-28T01:34:40.680Z,98259.25
2023-03-28T01:37:23.692Z,98267.03
2023-03-28T01:40:02.211Z,98268.72
2023-03-28T01:42:34.439Z,98267.00
2023-03-28T01:45:07.876Z,98260.09
2023-03-28T01:47:38.718Z,98254.91
2023-03-28T01:50:10.379Z,98260.13
2023-03-28T01:52:43.341Z,98271.31
2023-03-28T01:55:17.163Z,98272.22
2023-03-28T01:57:51.593Z,98272.25
2023-03-28T02:00:23.582Z,98277.41
2023-03-28T02:02:55.335Z,98281.72
2023-03-28T02:05:23.794Z,98278.28
2023-03-28T02:07:53.566Z,98280.03
2023-03-28T02:10:25.287Z,98280.09
2023-03-28T02:12:54.609Z,98276.66
2023-03-28T02:15:23.612Z,98272.34
2023-03-28T02:17:55.254Z,98274.97
2023-03-28T02:20:25.879Z,98263.78
2023-03-28T02:22:59.000Z,98264.63
2023-03-28T02:25:27.282Z,98259.47
2023-03-28T02:27:58.243Z,98263.72
2023-03-28T02:30:26.096Z,98263.78
2023-03-28T02:33:00.591Z,98259.47
2023-03-28T02:35:33.884Z,98262.09
2023-03-28T02:38:08.353Z,98258.66
2023-03-28T02:40:44.958Z,98256.13
2023-03-28T02:43:27.540Z,98260.44
2023-03-28T02:46:08.436Z,98258.72
2023-03-28T02:48:45.746Z,98262.16
2023-03-28T02:51:19.265Z,98264.78
2023-03-28T02:53:54.056Z,98265.63
2023-03-28T02:56:26.829Z,98257.97
2023-03-28T02:58:56.725Z,98247.69
2023-03-28T03:01:29.429Z,98266.53
2023-03-28T03:03:58.278Z,98258.78
2023-03-28T03:06:26.312Z,98256.25
2023-03-28T03:08:55.445Z,98255.38
2023-03-28T03:11:25.022Z,98248.50
2023-03-28T03:13:52.724Z,98249.38
2023-03-28T03:16:20.750Z,98247.63
2023-03-28T03:18:48.539Z,98255.38
2023-03-28T03:21:16.629Z,98251.94
2023-03-28T03:23:44.413Z,98253.72
2023-03-28T03:26:13.516Z,98262.31
2023-03-28T03:28:41.254Z,98270.94
2023-03-28T03:31:09.257Z,98272.66
2023-03-28T03:33:37.727Z,98272.69
2023-03-28T03:36:06.275Z,98272.69
2023-03-28T03:38:34.108Z,98273.53
2023-03-28T03:41:01.872Z,98283.00
2023-03-28T03:43:31.062Z,98285.59
2023-03-28T03:46:00.452Z,98273.53
2023-03-28T03:48:28.402Z,98274.41
2023-03-28T03:50:56.156Z,98283.88
2023-03-28T03:53:23.844Z,98279.56
2023-03-28T03:55:51.657Z,98286.44
2023-03-28T03:58:20.653Z,98286.44
2023-03-28T04:00:50.282Z,98291.59
2023-03-28T04:03:24.164Z,98292.44
2023-03-28T04:05:55.070Z,98281.25
2023-03-28T04:08:23.073Z,98272.66
2023-03-28T04:10:51.076Z,98279.53
2023-03-28T04:13:18.905Z,98289.00
2023-03-28T04:15:48.137Z,98286.38
2023-03-28T04:18:18.006Z,98284.66
2023-03-28T04:20:47.356Z,98287.28
2023-03-28T04:23:18.432Z,98295.03
2023-03-28T04:25:49.291Z,98293.34
2023-03-28T04:28:17.251Z,98295.97
2023-03-28T04:30:45.015Z,98293.34
2023-03-28T04:33:12.818Z,98296.78
2023-03-28T04:35:42.215Z,98305.38
2023-03-28T04:38:10.315Z,98295.88
2023-03-28T04:40:49.974Z,98303.63
2023-03-28T04:43:17.778Z,98301.06
2023-03-28T04:45:46.286Z,98295.88
2023-03-28T04:48:14.029Z,98298.47
2023-03-28T04:50:43.179Z,98303.66
2023-03-28T04:53:11.332Z,98306.28
2023-03-28T04:55:39.081Z,98304.56
2023-03-28T04:58:07.686Z,98302.88
2023-03-28T05:00:36.813Z,98320.09
2023-03-28T05:03:05.682Z,98325.25
2023-03-28T05:05:33.871Z,98307.22
2023-03-28T05:08:04.045Z,98327.81
2023-03-28T05:10:31.870Z,98326.09
2023-03-28T05:12:59.621Z,98323.53
2023-03-28T05:15:27.394Z,98326.09
2023-03-28T05:17:55.163Z,98333.88
2023-03-28T05:20:23.039Z,98339.03
2023-03-28T05:22:50.942Z,98341.63
2023-03-28T05:25:20.478Z,98340.75
2023-03-28T05:27:48.474Z,98338.19
2023-03-28T05:30:16.513Z,98333.88
2023-03-28T05:32:44.682Z,98347.63
2023-03-28T05:35:14.340Z,98349.34
2023-03-28T05:37:44.158Z,98351.91
2023-03-28T05:40:14.456Z,98344.16
2023-03-28T05:42:43.897Z,98357.06
2023-03-28T05:45:12.668Z,98357.03
2023-03-28T05:47:40.633Z,98360.44
2023-03-28T05:50:10.758Z,98352.72
2023-03-28T05:52:38.808Z,98366.47
2023-03-28T05:55:07.692Z,98361.25
2023-03-28T05:57:35.635Z,98365.53
2023-03-28T06:00:13.720Z,98367.22
2023-03-28T06:02:43.191Z,98368.03
2023-03-28T06:05:11.568Z,98367.19
2023-03-28T06:07:42.860Z,98371.47
2023-03-28T06:10:13.158Z,98361.09
2023-03-28T06:12:41.411Z,98362.72
2023-03-28T06:15:11.896Z,98365.31
2023-03-28T06:17:39.821Z,98358.38
2023-03-28T06:20:10.349Z,98366.03
2023-03-28T06:22:38.268Z,98359.09
2023-03-28T06:25:07.039Z,98358.19
2023-03-28T06:27:35.644Z,98364.16
2023-03-28T06:30:04.611Z,98367.53
2023-03-28T06:32:33.891Z,98367.50
2023-03-28T06:35:01.869Z,98368.25
2023-03-28T06:37:29.684Z,98366.44
2023-03-28T06:39:57.514Z,98361.19
2023-03-28T06:42:25.384Z,98367.09
2023-03-28T06:44:53.117Z,98364.28
2023-03-28T06:47:20.946Z,98372.81
2023-03-28T06:49:50.125Z,98370.91
2023-03-28T06:52:17.979Z,98365.63
2023-03-28T06:54:48.364Z,98365.47
2023-03-28T06:57:16.507Z,98371.25
2023-03-28T06:59:44.438Z,98364.91
2023-03-28T07:02:12.637Z,98375.19
2023-03-28T07:04:40.669Z,98376.97
2023-03-28T07:07:09.799Z,98372.69
2023-03-28T07:09:38.393Z,98378.66
2023-03-28T07:12:06.422Z,98381.06
2023-03-28T07:14:34.713Z,98378.22
2023-03-28T07:17:02.631Z,98381.44
2023-03-28T07:19:30.597Z,98380.47
2023-03-28T07:21:58.420Z,98382.03
2023-03-28T07:24:27.860Z,98380.06
2023-03-28T07:27:07.926Z,98385.06
2023-03-28T07:29:42.293Z,98384.13
2023-03-28T07:32:10.173Z,98398.56
2023-03-28T07:34:37.954Z,98404.38
2023-03-28T07:37:06.513Z,98410.22
2023-03-28T07:39:39.855Z,98406.63
2023-03-28T07:42:10.762Z,98395.44
2023-03-28T07:44:40.321Z,98416.97
2023-03-28T07:47:10.825Z,98387.66
2023-03-28T07:49:39.624Z,98414.13
2023-03-28T07:52:07.475Z,98412.34
2023-03-28T07:54:37.368Z,98424.50
2023-03-28T07:57:05.228Z,98420.16
2023-03-28T07:59:33.153Z,98426.81
2023-03-28T08:02:01.112Z,98422.88
2023-03-28T08:04:28.874Z,98427.84
2023-03-28T08:06:56.692Z,98430.16
2023-03-28T08:09:24.530Z,98437.00
2023-03-28T08:11:53.620Z,98431.78
2023-03-28T08:14:21.388Z,98436.09
2023-03-28T08:16:49.128Z,98434.94
2023-03-28T08:19:17.941Z,98433.91
2023-03-28T08:21:45.723Z,98433.13
2023-03-28T08:24:19.547Z,98427.22
2023-03-28T08:26:50.690Z,98435.72
2023-03-28T08:29:20.687Z,98429.41
2023-03-28T08:31:49.385Z,98433.66
2023-03-28T08:34:17.280Z,98434.28
2023-03-28T08:36:45.060Z,98435.28
2023-03-28T08:39:12.851Z,98430.09
2023-03-28T08:41:50.410Z,98435.78
2023-03-28T08:44:33.362Z,98446.63
2023-03-28T08:47:04.584Z,98444.53
2023-03-28T08:49:35.152Z,98445.44
2023-03-28T08:52:05.441Z,98442.59
2023-03-28T08:54:37.054Z,98448.84
2023-03-28T08:57:06.207Z,98448.25
2023-03-28T08:59:43.351Z,98449.31
2023-03-28T09:02:18.199Z,98434.78
2023-03-28T09:04:46.483Z,98444.38
2023-03-28T09:07:22.362Z,98450.91
2023-03-28T09:09:57.159Z,98439.09
2023-03-28T09:12:38.926Z,98450.16
2023-03-28T09:15:16.202Z,98449.25
2023-03-28T09:17:51.821Z,98444.22
2023-03-28T09:20:23.789Z,98445.44
2023-03-28T09:23:00.342Z,98453.81
2023-03-28T09:25:35.722Z,98455.81
2023-03-28T09:28:10.927Z,98451.69
2023-03-28T09:30:42.727Z,98452.75
2023-03-28T09:33:16.117Z,98455.97
2023-03-28T09:35:44.067Z,98451.94
2023-03-28T09:38:20.890Z,98448.78
2023-03-28T09:40:49.412Z,98454.00
2023-03-28T09:43:20.968Z,98437.81
2023-03-28T09:45:58.740Z,98439.19
2023-03-28T09:48:28.853Z,98420.84
2023-03-28T09:50:58.311Z,98436.38
2023-03-28T09:53:28.246Z,98425.00
2023-03-28T09:56:04.377Z,98430.22
2023-03-28T09:58:48.608Z,98430.00
2023-03-28T10:01:28.277Z,98437.97
2023-03-28T10:03:56.772Z,98437.59
2023-03-28T10:06:26.706Z,98430.34
2023-03-28T10:08:54.694Z,98439.16
2023-03-28T10:11:22.757Z,98433.47
2023-03-28T10:13:51.707Z,98437.97
2023-03-28T10:16:26.382Z,98435.78
2023-03-28T10:18:54.823Z,98447.41
2023-03-28T10:21:26.408Z,98440.97
2023-03-28T10:23:59.010Z,98436.69
2023-03-28T10:26:27.752Z,98435.13
2023-03-28T10:28:59.861Z,98424.84
2023-03-28T10:31:32.939Z,98424.16
2023-03-28T10:34:02.733Z,98420.56
2023-03-28T10:36:33.087Z,98418.22
2023-03-28T10:39:02.743Z,98423.97
2023-03-28T10:41:31.152Z,98411.28
2023-03-28T10:43:58.960Z,98419.47
2023-03-28T10:46:32.160Z,98411.06
2023-03-28T10:49:03.650Z,98420.66
2023-03-28T10:51:32.796Z,98406.63
2023-03-28T10:54:12.575Z,98403.75
2023-03-28T10:56:42.583Z,98400.66
2023-03-28T10:59:17.964Z,98401.00
2023-03-28T11:01:54.773Z,98407.22
2023-03-28T11:04:33.556Z,98403.13
2023-03-28T11:07:07.112Z,98391.28
2023-03-28T11:09:40.540Z,98386.69
2023-03-28T11:12:27.664Z,98377.22
2023-03-28T11:15:06.290Z,98375.94
2023-03-28T11:17:43.820Z,98382.53
2023-03-28T11:20:21.291Z,98387.41
2023-03-28T11:23:05.768Z,98378.53
2023-03-28T11:25:42.583Z,98381.50
2023-03-28T11:28:19.397Z,98363.69
2023-03-28T11:30:49.084Z,98362.78
2023-03-28T11:33:21.594Z,98364.84
2023-03-28T11:35:52.371Z,98362.41
2023-03-28T11:38:22.911Z,98364.59
2023-03-28T11:40:54.156Z,98371.69
2023-03-28T11:43:28.950Z,98349.22
2023-03-28T11:45:59.548Z,98350.16
2023-03-28T11:48:31.197Z,98280.19
2023-03-28T11:51:04.464Z,98333.94
2023-03-28T11:53:34.638Z,98327.03
2023-03-28T11:56:08.504Z,98330.81
2023-03-28T11:58:38.477Z,98327.88
2023-03-28T12:01:09.525Z,98315.31
2023-03-28T12:03:47.343Z,98325.59
2023-03-28T12:06:18.501Z,98332.50
2023-03-28T12:08:51.004Z,98325.94
2023-03-28T12:11:21.982Z,98328.03
2023-03-28T12:14:01.256Z,98310.72
2023-03-28T12:16:41.887Z,98312.56
2023-03-28T12:19:12.596Z,98315.22
2023-03-28T12:21:43.297Z,98311.69
2023-03-28T12:24:15.276Z,98317.09
2023-03-28T12:26:56.110Z,98302.38
2023-03-28T12:29:28.298Z,98298.47
2023-03-28T12:32:00.339Z,98297.41
2023-03-28T12:34:33.524Z,98299.75
2023-03-28T12:37:11.935Z,98271.16
2023-03-28T12:39:43.489Z,98298.47
2023-03-28T12:42:14.129Z,98256.88
2023-03-28T12:44:45.033Z,98296.47
2023-03-28T12:47:15.969Z,98276.63
2023-03-28T12:49:47.316Z,98270.63
2023-03-28T12:52:17.328Z,98268.28
2023-03-28T12:54:58.886Z,98257.47
2023-03-28T12:57:48.456Z,98261.13
2023-03-28T13:00:23.041Z,98261.03
2023-03-28T13:02:56.639Z,98251.41
2023-03-28T13:05:28.753Z,98251.69
2023-03-28T13:08:01.749Z,98253.56
2023-03-28T13:10:36.718Z,98260.53
2023-03-28T13:13:14.728Z,98257.91
2023-03-28T13:16:05.800Z,98253.56
2023-03-28T13:18:34.775Z,98218.47
2023-03-28T13:21:07.301Z,98243.66
2023-03-28T13:23:47.321Z,98236.88
2023-03-28T13:26:15.505Z,98231.03
2023-03-28T13:28:48.903Z,98230.66
2023-03-28T13:31:24.342Z,98230.69
2023-03-28T13:33:55.293Z,98222.28
2023-03-28T13:36:32.450Z,98219.97
2023-03-28T13:39:20.809Z,98212.38
2023-03-28T13:41:59.449Z,98180.25
2023-03-28T13:44:32.452Z,98212.00
2023-03-28T13:47:00.533Z,98199.72
2023-03-28T13:49:37.344Z,98202.03
2023-03-28T13:52:08.803Z,98190.63
2023-03-28T13:54:36.628Z,98197.34
2023-03-28T13:57:06.925Z,98189.28
2023-03-28T13:59:37.193Z,98178.09
2023-03-28T14:02:16.380Z,98148.56
2023-03-28T14:04:51.708Z,98192.31
2023-03-28T14:07:27.122Z,98182.00
2023-03-28T14:09:56.197Z,98195.00
2023-03-28T14:12:25.238Z,98194.91
2023-03-28T14:14:55.320Z,98190.97
2023-03-28T14:17:24.665Z,98187.81
2023-03-28T14:19:55.219Z,98184.44
2023-03-28T14:22:27.498Z,98170.06
2023-03-28T14:24:57.576Z,98168.50
2023-03-28T14:27:31.647Z,98152.47
2023-03-28T14:30:00.873Z,98154.53
2023-03-28T14:32:32.139Z,98140.78
2023-03-28T14:35:19.004Z,98133.28
2023-03-28T14:37:52.342Z,98118.97
2023-03-28T14:40:23.019Z,98142.75
2023-03-28T14:42:52.333Z,98122.38
2023-03-28T14:45:20.090Z,98113.78
2023-03-28T14:47:48.016Z,98117.19
2023-03-28T14:50:17.288Z,98119.22
2023-03-28T14:52:45.210Z,98109.97
2023-03-28T14:55:19.777Z,98109.97
2023-03-28T14:57:49.265Z,98106.44
2023-03-28T15:00:19.472Z,98111.38
2023-03-28T15:02:47.795Z,98108.56
2023-03-28T15:05:17.569Z,98094.16
2023-03-28T15:07:45.418Z,98095.03
2023-03-28T15:10:15.173Z,98092.66
2023-03-28T15:12:48.079Z,98084.28
2023-03-28T15:15:18.455Z,98076.28
2023-03-28T15:17:47.676Z,98067.56
2023-03-28T15:20:18.984Z,98067.03
2023-03-28T15:22:49.927Z,98077.34
2023-03-28T15:25:17.961Z,98068.59
2023-03-28T15:27:52.070Z,98062.56
2023-03-28T15:30:21.495Z,98070.75
2023-03-28T15:32:49.733Z,98059.13
2023-03-28T15:35:29.788Z,98063.94
2023-03-28T15:38:07.738Z,98059.09
2023-03-28T15:40:39.759Z,98052.13
2023-03-28T15:43:09.244Z,98043.69
2023-03-28T15:45:40.751Z,98030.66
2023-03-28T15:48:15.893Z,98041.91
2023-03-28T15:50:50.025Z,98028.72
2023-03-28T15:53:18.269Z,98022.47
2023-03-28T15:55:46.315Z,98020.38
2023-03-28T15:58:16.652Z,98014.91
2023-03-28T16:00:49.005Z,98030.78
2023-03-28T16:03:30.450Z,98023.69
2023-03-28T16:06:10.242Z,98012.53
2023-03-28T16:08:42.145Z,98010.31
2023-03-28T16:11:24.264Z,98006.06
2023-03-28T16:13:53.644Z,98009.19
2023-03-28T16:16:24.198Z,98000.34
2023-03-28T16:18:52.065Z,97993.84
2023-03-28T16:21:20.192Z,97992.06
2023-03-28T16:23:47.956Z,97990.72
2023-03-28T16:26:16.128Z,97975.47
2023-03-28T16:28:43.928Z,97975.66
2023-03-28T16:31:16.041Z,97974.06
2023-03-28T16:33:43.871Z,97962.66
2023-03-28T16:36:13.302Z,97960.25
2023-03-28T16:38:41.215Z,97956.44
2023-03-28T16:41:09.300Z,97955.94
2023-03-28T16:43:37.899Z,97952.63
2023-03-28T16:46:06.199Z,97947.16
2023-03-28T16:48:36.012Z,97959.69
2023-03-28T16:51:05.205Z,97952.31
2023-03-28T16:53:33.732Z,97961.47
2023-03-28T16:56:02.237Z,97947.13
2023-03-28T16:58:30.188Z,97943.66
2023-03-28T17:00:58.463Z,97945.22
2023-03-28T17:03:26.317Z,97928.72
2023-03-28T17:05:55.475Z,97931.88
2023-03-28T17:08:24.047Z,97936.66
2023-03-28T17:10:52.151Z,97931.88
2023-03-28T17:13:19.923Z,97933.72
2023-03-28T17:15:47.751Z,97928.56
2023-03-28T17:18:16.233Z,97924.59
2023-03-28T17:20:43.991Z,97926.84
2023-03-28T17:23:13.196Z,97913.00
2023-03-28T17:25:54.030Z,97927.81
2023-03-28T17:28:22.338Z,97916.69
2023-03-28T17:30:50.196Z,97919.63
2023-03-28T17:33:18.474Z,97908.59
2023-03-28T17:35:47.081Z,97897.25
2023-03-28T17:38:16.653Z,97907.69
2023-03-28T17:40:47.641Z,97907.69
2023-03-28T17:43:15.554Z,97896.53
2023-03-28T17:45:43.332Z,97902.53
2023-03-28T17:48:12.617Z,97879.47
2023-03-28T17:50:40.553Z,97905.16
2023-03-28T17:53:08.343Z,97910.59
2023-03-28T17:55:37.501Z,97910.03
2023-03-28T17:58:05.213Z,97919.50
2023-03-28T18:00:33.211Z,97921.31
2023-03-28T18:03:01.344Z,97917.78
2023-03-28T18:05:30.347Z,97923.00
2023-03-28T18:07:58.160Z,97927.25
2023-03-28T18:10:26.295Z,97922.16
2023-03-28T18:12:55.413Z,97922.22
2023-03-28T18:15:23.239Z,97926.53
2023-03-28T18:17:51.298Z,97923.72
2023-03-28T18:20:19.329Z,97920.94
2023-03-28T18:22:47.127Z,97914.13
2023-03-28T18:25:14.907Z,97917.78
2023-03-28T18:27:42.634Z,97918.78
2023-03-28T18:30:12.848Z,97918.94
2023-03-28T18:32:40.598Z,97917.88
2023-03-28T18:35:09.739Z,97910.94
2023-03-28T18:37:37.552Z,97902.09
2023-03-28T18:40:07.945Z,97905.50
2023-03-28T18:42:36.623Z,97903.56
2023-03-28T18:45:04.544Z,97900.13
2023-03-28T18:47:33.662Z,97899.28
2023-03-28T18:50:01.563Z,97902.75
2023-03-28T18:52:29.828Z,97905.25
2023-03-28T18:54:57.683Z,97911.28
2023-03-28T18:57:25.660Z,97905.16
2023-03-28T18:59:55.618Z,97913.91
2023-03-28T19:02:23.690Z,97912.56
2023-03-28T19:04:52.891Z,97914.25
2023-03-28T19:07:20.923Z,97912.41
2023-03-28T19:09:48.850Z,97918.22
2023-03-28T19:12:17.084Z,97923.38
2023-03-28T19:14:44.881Z,97913.78
2023-03-28T19:17:12.642Z,97914.00
2023-03-28T19:19:40.380Z,97910.66
2023-03-28T19:22:10.757Z,97913.25
2023-03-28T19:24:38.652Z,97912.41
2023-03-28T19:27:06.377Z,97908.22
2023-03-28T19:29:34.177Z,97912.25
2023-03-28T19:32:01.968Z,97916.47
2023-03-28T19:34:29.717Z,97903.44
2023-03-28T19:36:57.420Z,97916.63
2023-03-28T19:39:26.558Z,97911.81
2023-03-28T19:41:55.804Z,97912.63
2023-03-28T19:44:23.712Z,97904.84
2023-03-28T19:46:51.526Z,97916.03
2023-03-28T19:49:19.446Z,97917.59
2023-03-28T19:51:47.237Z,97908.84
2023-03-28T19:54:15.102Z,97903.13
2023-03-28T19:56:44.823Z,97906.06
2023-03-28T19:59:12.645Z,97906.56
2023-03-28T20:01:40.514Z,97903.44
2023-03-28T20:04:08.430Z,97911.34
2023-03-28T20:06:36.288Z,97916.03
2023-03-28T20:09:05.160Z,97919.78
2023-03-28T20:11:33.425Z,97930.63
2023-03-28T20:14:02.655Z,97914.97
2023-03-28T20:16:30.521Z,97915.91
2023-03-28T20:18:58.352Z,97928.28
2023-03-28T20:21:28.465Z,97914.72
2023-03-28T20:23:58.572Z,97913.00
2023-03-28T20:26:27.142Z,97901.09
2023-03-28T20:28:56.936Z,97903.22
2023-03-28T20:31:26.588Z,97899.13
2023-03-28T20:33:55.390Z,97895.13
2023-03-28T20:36:23.326Z,97885.09
2023-03-28T20:38:51.500Z,97879.97
2023-03-28T20:41:19.711Z,97874.13
2023-03-28T20:43:48.085Z,97868.97
2023-03-28T20:46:19.109Z,97850.78
2023-03-28T20:48:52.854Z,97834.16
2023-03-28T20:51:22.915Z,97834.97
2023-03-28T20:53:53.553Z,97830.53
2023-03-28T20:56:21.846Z,97834.69
2023-03-28T20:58:50.846Z,97840.53
2023-03-28T21:01:20.289Z,97788.28
2023-03-28T21:03:50.549Z,97832.28
2023-03-28T21:06:20.501Z,97830.66
2023-03-28T21:08:50.087Z,97822.88
2023-03-28T21:11:21.230Z,97815.16
2023-03-28T21:13:49.352Z,97816.25
2023-03-28T21:16:18.082Z,97815.34
2023-03-28T21:18:46.780Z,97815.09
2023-03-28T21:21:20.361Z,97806.38
2023-03-28T21:23:48.597Z,97793.66
2023-03-28T21:26:18.214Z,97805.34
2023-03-28T21:28:46.430Z,97821.69
2023-03-28T21:31:16.136Z,97828.47
2023-03-28T21:33:44.062Z,97820.78
2023-03-28T21:36:14.252Z,97818.16
2023-03-28T21:38:44.447Z,97782.34
2023-03-28T21:41:13.038Z,97817.22
2023-03-28T21:43:41.150Z,97818.97
2023-03-28T21:46:09.486Z,97817.28
2023-03-28T21:48:38.196Z,97813.81
2023-03-28T21:51:06.791Z,97826.06
2023-03-28T21:53:36.767Z,97813.91
2023-03-28T21:56:07.291Z,97816.38
2023-03-28T21:58:35.655Z,97807.84
2023-03-28T22:01:04.277Z,97804.31
2023-03-28T22:03:32.808Z,97802.63
2023-03-28T22:06:00.844Z,97796.78
2023-03-28T22:08:28.744Z,97800.28
2023-03-28T22:10:58.657Z,97802.19
2023-03-28T22:13:29.843Z,97795.16
2023-03-28T22:15:59.829Z,97794.34
2023-03-28T22:18:30.700Z,97785.78
2023-03-28T22:21:02.615Z,97777.22
2023-03-28T22:23:31.683Z,97769.59
2023-03-28T22:25:59.709Z,97781.69
2023-03-28T22:28:29.002Z,97791.06
2023-03-28T22:30:57.365Z,97778.41
2023-03-28T22:33:25.799Z,97794.69
2023-03-28T22:35:53.661Z,97792.03
2023-03-28T22:38:21.525Z,97791.13
2023-03-28T22:40:49.307Z,97791.97
2023-03-28T22:43:17.587Z,97789.41
2023-03-28T22:45:47.439Z,97790.44
2023-03-28T22:48:15.256Z,97788.13
2023-03-28T22:50:44.167Z,97774.50
2023-03-28T22:53:12.771Z,97772.00
2023-03-28T22:55:41.725Z,97764.63
2023-03-28T22:58:09.562Z,97756.78
2023-03-28T23:00:37.531Z,97759.53
2023-03-28T23:03:08.084Z,97760.44
2023-03-28T23:05:36.441Z,97754.69
2023-03-28T23:08:04.768Z,97752.66
2023-03-28T23:10:33.167Z,97756.13
2023-03-28T23:13:01.267Z,97754.50
2023-03-28T23:15:29.055Z,97750.31
2023-03-28T23:17:58.083Z,97754.72
2023-03-28T23:20:27.515Z,97747.88
2023-03-28T23:22:55.440Z,97747.81
2023-03-28T23:25:23.230Z,97742.56
2023-03-28T23:27:51.038Z,97732.94
2023-03-28T23:30:18.965Z,97706.13
2023-03-28T23:32:46.804Z,97709.66
2023-03-28T23:35:14.658Z,97704.53
2023-03-28T23:37:44.853Z,97710.59
2023-03-28T23:40:15.470Z,97699.34
2023-03-28T23:42:44.877Z,97696.72
2023-03-28T23:45:13.953Z,97695.81
2023-03-28T23:47:42.015Z,97693.03
2023-03-28T23:50:10.768Z,97693.00
2023-03-28T23:52:38.592Z,97684.22
2023-03-28T23:55:08.987Z,97691.19
2023-03-28T23:57:37.246Z,97692.09
